sensor_id;sensor_type;location;lat;lon;timestamp;P1;durP1;ratioP1;P2;durP2;ratioP2
21432;SDS011;18592;49.708;10.900;2023-04-15T00:00:09;3.80;;;2.70;;
21432;SDS011;18592;49.708;10.900;2023-04-15T00:02:15;3.10;;;2.67;;
21432;SDS011;18592;49.708;10.900;2023-04-15T00:04:19;3.60;;;2.72;;
21432;SDS011;18592;49.708;10.900;2023-04-15T00:06:21;3.08;;;2.50;;
21432;SDS011;18592;49.708;10.900;2023-04-15T00:08:23;3.90;;;2.95;;
21432;SDS011;18592;49.708;10.900;2023-04-15T00:10:24;3.85;;;2.63;;
21432;SDS011;18592;49.708;10.900;2023-04-15T00:12:34;4.15;;;3.00;;
21432;SDS011;18592;49.708;10.900;2023-04-15T00:14:35;3.20;;;2.50;;
21432;SDS011;18592;49.708;10.900;2023-04-15T00:16:37;4.30;;;2.65;;
21432;SDS011;18592;49.708;10.900;2023-04-15T00:18:39;3.60;;;2.97;;
21432;SDS011;18592;49.708;10.900;2023-04-15T00:20:43;3.85;;;2.65;;
21432;SDS011;18592;49.708;10.900;2023-04-15T00:22:45;4.18;;;3.00;;
21432;SDS011;18592;49.708;10.900;2023-04-15T00:24:47;2.95;;;2.67;;
21432;SDS011;18592;49.708;10.900;2023-04-15T00:26:49;3.13;;;2.65;;
21432;SDS011;18592;49.708;10.900;2023-04-15T00:28:52;3.53;;;2.58;;
21432;SDS011;18592;49.708;10.900;2023-04-15T00:30:54;4.47;;;3.22;;
21432;SDS011;18592;49.708;10.900;2023-04-15T00:33:01;4.78;;;3.05;;
21432;SDS011;18592;49.708;10.900;2023-04-15T00:35:03;3.53;;;2.85;;
21432;SDS011;18592;49.708;10.900;2023-04-15T00:37:06;3.85;;;2.92;;
21432;SDS011;18592;49.708;10.900;2023-04-15T00:39:07;3.67;;;2.90;;
21432;SDS011;18592;49.708;10.900;2023-04-15T00:41:09;2.78;;;2.50;;
21432;SDS011;18592;49.708;10.900;2023-04-15T00:43:12;3.35;;;2.80;;
21432;SDS011;18592;49.708;10.900;2023-04-15T00:45:13;3.53;;;2.20;;
21432;SDS011;18592;49.708;10.900;2023-04-15T00:47:18;2.85;;;2.50;;
21432;SDS011;18592;49.708;10.900;2023-04-15T00:49:21;3.78;;;2.53;;
21432;SDS011;18592;49.708;10.900;2023-04-15T00:51:29;4.78;;;2.60;;
21432;SDS011;18592;49.708;10.900;2023-04-15T00:53:36;3.22;;;2.33;;
21432;SDS011;18592;49.708;10.900;2023-04-15T00:55:38;3.22;;;2.75;;
21432;SDS011;18592;49.708;10.900;2023-04-15T00:57:40;3.30;;;2.30;;
21432;SDS011;18592;49.708;10.900;2023-04-15T00:59:42;4.30;;;2.70;;
21432;SDS011;18592;49.708;10.900;2023-04-15T01:01:44;4.03;;;2.92;;
21432;SDS011;18592;49.708;10.900;2023-04-15T01:06:16;3.47;;;2.55;;
21432;SDS011;18592;49.708;10.900;2023-04-15T01:08:21;3.17;;;2.60;;
21432;SDS011;18592;49.708;10.900;2023-04-15T01:10:23;3.13;;;2.40;;
21432;SDS011;18592;49.708;10.900;2023-04-15T01:12:25;3.15;;;2.53;;
21432;SDS011;18592;49.708;10.900;2023-04-15T01:14:27;3.58;;;2.45;;
21432;SDS011;18592;49.708;10.900;2023-04-15T01:16:29;2.80;;;2.50;;
21432;SDS011;18592;49.708;10.900;2023-04-15T01:18:32;3.28;;;2.70;;
21432;SDS011;18592;49.708;10.900;2023-04-15T01:20:33;3.47;;;2.45;;
21432;SDS011;18592;49.708;10.900;2023-04-15T01:22:37;3.28;;;2.40;;
21432;SDS011;18592;49.708;10.900;2023-04-15T01:24:44;3.17;;;2.60;;
21432;SDS011;18592;49.708;10.900;2023-04-15T01:26:55;3.28;;;2.38;;
21432;SDS011;18592;49.708;10.900;2023-04-15T01:28:57;3.00;;;2.50;;
21432;SDS011;18592;49.708;10.900;2023-04-15T01:31:09;3.95;;;2.65;;
21432;SDS011;18592;49.708;10.900;2023-04-15T01:33:19;2.90;;;2.45;;
21432;SDS011;18592;49.708;10.900;2023-04-15T01:35:21;3.83;;;2.78;;
21432;SDS011;18592;49.708;10.900;2023-04-15T01:37:25;2.97;;;2.58;;
21432;SDS011;18592;49.708;10.900;2023-04-15T01:39:33;3.83;;;2.45;;
21432;SDS011;18592;49.708;10.900;2023-04-15T01:41:38;4.03;;;2.75;;
21432;SDS011;18592;49.708;10.900;2023-04-15T01:43:43;2.88;;;2.30;;
21432;SDS011;18592;49.708;10.900;2023-04-15T01:45:44;3.72;;;2.35;;
21432;SDS011;18592;49.708;10.900;2023-04-15T01:47:46;3.60;;;2.50;;
21432;SDS011;18592;49.708;10.900;2023-04-15T01:49:48;3.20;;;2.75;;
21432;SDS011;18592;49.708;10.900;2023-04-15T01:51:52;2.70;;;2.40;;
21432;SDS011;18592;49.708;10.900;2023-04-15T01:53:54;2.65;;;2.45;;
21432;SDS011;18592;49.708;10.900;2023-04-15T01:55:59;3.22;;;2.45;;
21432;SDS011;18592;49.708;10.900;2023-04-15T01:58:01;2.55;;;2.35;;
21432;SDS011;18592;49.708;10.900;2023-04-15T02:00:03;3.20;;;2.50;;
21432;SDS011;18592;49.708;10.900;2023-04-15T02:02:13;3.55;;;2.67;;
21432;SDS011;18592;49.708;10.900;2023-04-15T02:04:18;5.43;;;2.95;;
21432;SDS011;18592;49.708;10.900;2023-04-15T02:06:20;3.08;;;2.70;;
21432;SDS011;18592;49.708;10.900;2023-04-15T02:08:30;2.78;;;2.53;;
21432;SDS011;18592;49.708;10.900;2023-04-15T02:10:32;2.75;;;2.38;;
21432;SDS011;18592;49.708;10.900;2023-04-15T02:12:33;2.45;;;2.25;;
21432;SDS011;18592;49.708;10.900;2023-04-15T02:14:35;3.40;;;2.60;;
21432;SDS011;18592;49.708;10.900;2023-04-15T02:16:38;2.47;;;2.28;;
21432;SDS011;18592;49.708;10.900;2023-04-15T02:18:40;3.35;;;2.67;;
21432;SDS011;18592;49.708;10.900;2023-04-15T02:20:45;2.63;;;2.17;;
21432;SDS011;18592;49.708;10.900;2023-04-15T02:22:47;2.90;;;2.53;;
21432;SDS011;18592;49.708;10.900;2023-04-15T02:24:49;3.28;;;2.50;;
21432;SDS011;18592;49.708;10.900;2023-04-15T02:26:50;4.78;;;2.67;;
21432;SDS011;18592;49.708;10.900;2023-04-15T02:28:53;3.15;;;2.40;;
21432;SDS011;18592;49.708;10.900;2023-04-15T02:30:58;3.97;;;2.58;;
21432;SDS011;18592;49.708;10.900;2023-04-15T02:33:00;3.13;;;2.38;;
21432;SDS011;18592;49.708;10.900;2023-04-15T02:35:05;3.00;;;2.60;;
21432;SDS011;18592;49.708;10.900;2023-04-15T02:37:09;2.85;;;2.40;;
21432;SDS011;18592;49.708;10.900;2023-04-15T02:39:12;2.78;;;2.08;;
21432;SDS011;18592;49.708;10.900;2023-04-15T02:41:16;2.60;;;2.40;;
21432;SDS011;18592;49.708;10.900;2023-04-15T02:43:19;3.63;;;2.80;;
21432;SDS011;18592;49.708;10.900;2023-04-15T02:45:20;2.88;;;2.25;;
21432;SDS011;18592;49.708;10.900;2023-04-15T02:47:24;2.45;;;2.25;;
21432;SDS011;18592;49.708;10.900;2023-04-15T02:49:26;3.67;;;2.30;;
21432;SDS011;18592;49.708;10.900;2023-04-15T02:51:30;4.05;;;2.67;;
21432;SDS011;18592;49.708;10.900;2023-04-15T02:53:34;3.10;;;2.63;;
21432;SDS011;18592;49.708;10.900;2023-04-15T02:55:36;3.22;;;2.50;;
21432;SDS011;18592;49.708;10.900;2023-04-15T02:57:41;3.83;;;2.80;;
21432;SDS011;18592;49.708;10.900;2023-04-15T02:59:47;4.00;;;2.67;;
21432;SDS011;18592;49.708;10.900;2023-04-15T03:01:49;3.28;;;2.30;;
21432;SDS011;18592;49.708;10.900;2023-04-15T03:03:51;3.15;;;2.50;;
21432;SDS011;18592;49.708;10.900;2023-04-15T03:05:53;3.00;;;2.42;;
21432;SDS011;18592;49.708;10.900;2023-04-15T03:07:55;3.00;;;2.40;;
21432;SDS011;18592;49.708;10.900;2023-04-15T03:10:00;2.83;;;2.42;;
21432;SDS011;18592;49.708;10.900;2023-04-15T03:12:04;2.80;;;2.22;;
21432;SDS011;18592;49.708;10.900;2023-04-15T03:14:06;2.20;;;2.00;;
21432;SDS011;18592;49.708;10.900;2023-04-15T03:16:11;2.95;;;2.50;;
21432;SDS011;18592;49.708;10.900;2023-04-15T03:18:13;3.00;;;2.50;;
21432;SDS011;18592;49.708;10.900;2023-04-15T03:20:14;2.97;;;2.70;;
21432;SDS011;18592;49.708;10.900;2023-04-15T03:22:21;2.47;;;2.28;;
21432;SDS011;18592;49.708;10.900;2023-04-15T03:24:23;2.55;;;2.33;;
21432;SDS011;18592;49.708;10.900;2023-04-15T03:26:26;2.45;;;2.25;;
21432;SDS011;18592;49.708;10.900;2023-04-15T03:28:44;2.50;;;2.30;;
21432;SDS011;18592;49.708;10.900;2023-04-15T03:30:49;2.95;;;2.33;;
21432;SDS011;18592;49.708;10.900;2023-04-15T03:32:53;2.22;;;2.03;;
21432;SDS011;18592;49.708;10.900;2023-04-15T03:34:55;3.00;;;2.50;;
21432;SDS011;18592;49.708;10.900;2023-04-15T03:36:59;2.95;;;2.20;;
21432;SDS011;18592;49.708;10.900;2023-04-15T03:39:00;2.72;;;2.42;;
21432;SDS011;18592;49.708;10.900;2023-04-15T03:41:02;2.78;;;2.53;;
21432;SDS011;18592;49.708;10.900;2023-04-15T03:43:04;2.92;;;2.17;;
21432;SDS011;18592;49.708;10.900;2023-04-15T03:45:07;2.72;;;2.22;;
21432;SDS011;18592;49.708;10.900;2023-04-15T03:47:09;2.22;;;2.03;;
21432;SDS011;18592;49.708;10.900;2023-04-15T03:49:12;2.35;;;2.15;;
21432;SDS011;18592;49.708;10.900;2023-04-15T03:51:14;2.65;;;2.45;;
21432;SDS011;18592;49.708;10.900;2023-04-15T03:53:18;2.50;;;2.30;;
21432;SDS011;18592;49.708;10.900;2023-04-15T03:55:21;2.30;;;2.10;;
21432;SDS011;18592;49.708;10.900;2023-04-15T03:57:22;3.38;;;2.40;;
21432;SDS011;18592;49.708;10.900;2023-04-15T03:59:24;3.20;;;2.38;;
21432;SDS011;18592;49.708;10.900;2023-04-15T04:01:28;2.92;;;2.33;;
21432;SDS011;18592;49.708;10.900;2023-04-15T04:03:30;3.15;;;2.35;;
21432;SDS011;18592;49.708;10.900;2023-04-15T04:05:32;2.70;;;2.50;;
21432;SDS011;18592;49.708;10.900;2023-04-15T04:07:34;3.20;;;2.42;;
21432;SDS011;18592;49.708;10.900;2023-04-15T04:09:36;3.25;;;2.38;;
21432;SDS011;18592;49.708;10.900;2023-04-15T04:11:41;2.20;;;2.00;;
21432;SDS011;18592;49.708;10.900;2023-04-15T04:13:43;2.50;;;2.20;;
21432;SDS011;18592;49.708;10.900;2023-04-15T04:15:47;3.10;;;2.40;;
21432;SDS011;18592;49.708;10.900;2023-04-15T04:17:50;2.30;;;2.00;;
21432;SDS011;18592;49.708;10.900;2023-04-15T04:19:52;3.05;;;2.40;;
21432;SDS011;18592;49.708;10.900;2023-04-15T04:21:55;2.70;;;2.45;;
21432;SDS011;18592;49.708;10.900;2023-04-15T04:23:57;3.58;;;2.42;;
21432;SDS011;18592;49.708;10.900;2023-04-15T04:26:04;3.53;;;2.70;;
21432;SDS011;18592;49.708;10.900;2023-04-15T04:28:06;2.83;;;2.20;;
21432;SDS011;18592;49.708;10.900;2023-04-15T04:30:12;2.95;;;2.30;;
21432;SDS011;18592;49.708;10.900;2023-04-15T04:32:13;2.25;;;2.05;;
21432;SDS011;18592;49.708;10.900;2023-04-15T04:34:15;2.70;;;2.30;;
21432;SDS011;18592;49.708;10.900;2023-04-15T04:36:16;2.67;;;2.25;;
21432;SDS011;18592;49.708;10.900;2023-04-15T04:38:18;2.60;;;2.40;;
21432;SDS011;18592;49.708;10.900;2023-04-15T04:40:20;3.55;;;2.47;;
21432;SDS011;18592;49.708;10.900;2023-04-15T04:42:21;3.10;;;2.35;;
21432;SDS011;18592;49.708;10.900;2023-04-15T04:44:26;2.35;;;2.15;;
21432;SDS011;18592;49.708;10.900;2023-04-15T04:46:27;2.83;;;2.50;;
21432;SDS011;18592;49.708;10.900;2023-04-15T04:48:30;3.15;;;2.80;;
21432;SDS011;18592;49.708;10.900;2023-04-15T04:50:32;4.25;;;2.67;;
21432;SDS011;18592;49.708;10.900;2023-04-15T04:52:34;2.83;;;2.63;;
21432;SDS011;18592;49.708;10.900;2023-04-15T04:54:44;3.65;;;3.15;;
21432;SDS011;18592;49.708;10.900;2023-04-15T04:56:45;3.20;;;2.85;;
21432;SDS011;18592;49.708;10.900;2023-04-15T04:58:47;3.40;;;3.10;;
21432;SDS011;18592;49.708;10.900;2023-04-15T05:00:49;3.20;;;2.90;;
21432;SDS011;18592;49.708;10.900;2023-04-15T05:02:51;4.78;;;3.15;;
21432;SDS011;18592;49.708;10.900;2023-04-15T05:05:08;3.15;;;2.83;;
21432;SDS011;18592;49.708;10.900;2023-04-15T05:07:10;3.55;;;2.80;;
21432;SDS011;18592;49.708;10.900;2023-04-15T05:09:17;3.20;;;2.90;;
21432;SDS011;18592;49.708;10.900;2023-04-15T05:11:19;4.10;;;2.63;;
21432;SDS011;18592;49.708;10.900;2023-04-15T05:13:21;3.00;;;2.70;;
21432;SDS011;18592;49.708;10.900;2023-04-15T05:15:22;3.40;;;2.53;;
21432;SDS011;18592;49.708;10.900;2023-04-15T05:17:24;3.40;;;2.30;;
21432;SDS011;18592;49.708;10.900;2023-04-15T05:19:27;2.30;;;2.13;;
21432;SDS011;18592;49.708;10.900;2023-04-15T05:21:29;2.85;;;2.50;;
21432;SDS011;18592;49.708;10.900;2023-04-15T05:23:31;2.80;;;2.60;;
21432;SDS011;18592;49.708;10.900;2023-04-15T05:25:33;3.47;;;2.20;;
21432;SDS011;18592;49.708;10.900;2023-04-15T05:27:35;3.63;;;2.47;;
21432;SDS011;18592;49.708;10.900;2023-04-15T05:29:37;3.53;;;2.75;;
21432;SDS011;18592;49.708;10.900;2023-04-15T05:31:41;3.33;;;2.80;;
21432;SDS011;18592;49.708;10.900;2023-04-15T05:33:44;3.33;;;2.95;;
21432;SDS011;18592;49.708;10.900;2023-04-15T05:35:46;3.42;;;2.90;;
21432;SDS011;18592;49.708;10.900;2023-04-15T05:37:47;4.80;;;3.08;;
21432;SDS011;18592;49.708;10.900;2023-04-15T05:39:52;2.58;;;2.38;;
21432;SDS011;18592;49.708;10.900;2023-04-15T05:41:53;2.97;;;2.47;;
21432;SDS011;18592;49.708;10.900;2023-04-15T05:43:58;3.13;;;2.60;;
21432;SDS011;18592;49.708;10.900;2023-04-15T05:45:59;4.47;;;2.28;;
21432;SDS011;18592;49.708;10.900;2023-04-15T05:48:01;2.53;;;2.33;;
21432;SDS011;18592;49.708;10.900;2023-04-15T05:50:06;3.75;;;2.80;;
21432;SDS011;18592;49.708;10.900;2023-04-15T05:52:08;3.28;;;2.50;;
21432;SDS011;18592;49.708;10.900;2023-04-15T05:54:10;4.25;;;3.58;;
21432;SDS011;18592;49.708;10.900;2023-04-15T05:56:12;4.13;;;3.70;;
21432;SDS011;18592;49.708;10.900;2023-04-15T05:58:13;3.80;;;3.33;;
21432;SDS011;18592;49.708;10.900;2023-04-15T06:00:17;4.53;;;3.53;;
21432;SDS011;18592;49.708;10.900;2023-04-15T06:02:19;4.10;;;3.53;;
21432;SDS011;18592;49.708;10.900;2023-04-15T06:04:21;4.32;;;3.33;;
21432;SDS011;18592;49.708;10.900;2023-04-15T06:06:23;4.45;;;3.40;;
21432;SDS011;18592;49.708;10.900;2023-04-15T06:08:24;3.78;;;3.10;;
21432;SDS011;18592;49.708;10.900;2023-04-15T06:10:26;4.45;;;3.58;;
21432;SDS011;18592;49.708;10.900;2023-04-15T06:12:32;4.30;;;3.15;;
21432;SDS011;18592;49.708;10.900;2023-04-15T06:14:33;4.13;;;3.70;;
21432;SDS011;18592;49.708;10.900;2023-04-15T06:16:35;4.38;;;3.63;;
21432;SDS011;18592;49.708;10.900;2023-04-15T06:18:38;4.07;;;3.60;;
21432;SDS011;18592;49.708;10.900;2023-04-15T06:20:40;4.28;;;3.70;;
21432;SDS011;18592;49.708;10.900;2023-04-15T06:22:42;4.55;;;3.28;;
21432;SDS011;18592;49.708;10.900;2023-04-15T06:24:43;3.80;;;3.35;;
21432;SDS011;18592;49.708;10.900;2023-04-15T06:26:45;3.63;;;3.20;;
21432;SDS011;18592;49.708;10.900;2023-04-15T06:28:47;4.57;;;3.70;;
21432;SDS011;18592;49.708;10.900;2023-04-15T06:30:51;3.83;;;3.20;;
21432;SDS011;18592;49.708;10.900;2023-04-15T06:32:54;5.35;;;3.47;;
21432;SDS011;18592;49.708;10.900;2023-04-15T06:34:56;3.33;;;2.83;;
21432;SDS011;18592;49.708;10.900;2023-04-15T06:36:58;4.72;;;3.38;;
21432;SDS011;18592;49.708;10.900;2023-04-15T06:39:01;4.82;;;4.10;;
21432;SDS011;18592;49.708;10.900;2023-04-15T06:41:03;4.05;;;3.70;;
21432;SDS011;18592;49.708;10.900;2023-04-15T06:43:09;4.72;;;4.22;;
21432;SDS011;18592;49.708;10.900;2023-04-15T06:45:14;5.32;;;4.20;;
21432;SDS011;18592;49.708;10.900;2023-04-15T06:47:25;4.38;;;3.97;;
21432;SDS011;18592;49.708;10.900;2023-04-15T06:49:27;4.50;;;4.10;;
21432;SDS011;18592;49.708;10.900;2023-04-15T06:51:28;5.05;;;4.32;;
21432;SDS011;18592;49.708;10.900;2023-04-15T06:53:30;4.75;;;4.25;;
21432;SDS011;18592;49.708;10.900;2023-04-15T06:55:32;5.82;;;4.43;;
21432;SDS011;18592;49.708;10.900;2023-04-15T06:57:37;4.60;;;4.20;;
21432;SDS011;18592;49.708;10.900;2023-04-15T06:59:42;5.93;;;4.20;;
21432;SDS011;18592;49.708;10.900;2023-04-15T07:01:44;4.35;;;3.95;;
21432;SDS011;18592;49.708;10.900;2023-04-15T07:03:45;5.80;;;4.50;;
21432;SDS011;18592;49.708;10.900;2023-04-15T07:05:49;4.40;;;3.83;;
21432;SDS011;18592;49.708;10.900;2023-04-15T07:07:51;5.35;;;4.40;;
21432;SDS011;18592;49.708;10.900;2023-04-15T07:09:53;4.78;;;3.85;;
21432;SDS011;18592;49.708;10.900;2023-04-15T07:11:54;3.90;;;3.50;;
21432;SDS011;18592;49.708;10.900;2023-04-15T07:13:56;5.80;;;4.43;;
21432;SDS011;18592;49.708;10.900;2023-04-15T07:16:03;7.07;;;5.03;;
21432;SDS011;18592;49.708;10.900;2023-04-15T07:18:04;4.85;;;4.35;;
21432;SDS011;18592;49.708;10.900;2023-04-15T07:20:06;4.78;;;4.07;;
21432;SDS011;18592;49.708;10.900;2023-04-15T07:22:08;5.10;;;4.05;;
21432;SDS011;18592;49.708;10.900;2023-04-15T07:24:10;4.43;;;3.80;;
21432;SDS011;18592;49.708;10.900;2023-04-15T07:26:12;4.70;;;4.05;;
21432;SDS011;18592;49.708;10.900;2023-04-15T07:28:14;4.53;;;3.67;;
21432;SDS011;18592;49.708;10.900;2023-04-15T07:30:15;4.78;;;3.33;;
21432;SDS011;18592;49.708;10.900;2023-04-15T07:32:18;3.95;;;3.15;;
21432;SDS011;18592;49.708;10.900;2023-04-15T07:34:22;2.70;;;2.50;;
21432;SDS011;18592;49.708;10.900;2023-04-15T07:36:24;3.00;;;2.40;;
21432;SDS011;18592;49.708;10.900;2023-04-15T07:38:26;4.28;;;2.90;;
21432;SDS011;18592;49.708;10.900;2023-04-15T07:40:27;3.08;;;2.72;;
21432;SDS011;18592;49.708;10.900;2023-04-15T07:42:29;4.90;;;3.33;;
21432;SDS011;18592;49.708;10.900;2023-04-15T07:44:30;3.40;;;2.55;;
21432;SDS011;18592;49.708;10.900;2023-04-15T07:46:32;4.72;;;2.90;;
21432;SDS011;18592;49.708;10.900;2023-04-15T07:48:37;4.78;;;3.20;;
21432;SDS011;18592;49.708;10.900;2023-04-15T07:50:42;3.58;;;3.10;;
21432;SDS011;18592;49.708;10.900;2023-04-15T07:52:44;4.45;;;3.05;;
21432;SDS011;18592;49.708;10.900;2023-04-15T07:54:46;3.50;;;2.75;;
21432;SDS011;18592;49.708;10.900;2023-04-15T07:56:48;3.65;;;2.80;;
21432;SDS011;18592;49.708;10.900;2023-04-15T07:58:49;3.35;;;2.70;;
21432;SDS011;18592;49.708;10.900;2023-04-15T08:00:53;4.50;;;2.80;;
21432;SDS011;18592;49.708;10.900;2023-04-15T08:02:55;4.07;;;3.15;;
21432;SDS011;18592;49.708;10.900;2023-04-15T08:04:58;2.97;;;2.65;;
21432;SDS011;18592;49.708;10.900;2023-04-15T08:07:00;3.65;;;3.17;;
21432;SDS011;18592;49.708;10.900;2023-04-15T08:09:01;4.43;;;2.80;;
21432;SDS011;18592;49.708;10.900;2023-04-15T08:11:03;3.30;;;2.85;;
21432;SDS011;18592;49.708;10.900;2023-04-15T08:13:09;3.47;;;2.90;;
21432;SDS011;18592;49.708;10.900;2023-04-15T08:15:12;3.20;;;2.90;;
21432;SDS011;18592;49.708;10.900;2023-04-15T08:17:14;3.95;;;2.90;;
21432;SDS011;18592;49.708;10.900;2023-04-15T08:19:16;3.78;;;3.08;;
21432;SDS011;18592;49.708;10.900;2023-04-15T08:21:20;4.40;;;3.42;;
21432;SDS011;18592;49.708;10.900;2023-04-15T08:23:22;5.22;;;4.00;;
21432;SDS011;18592;49.708;10.900;2023-04-15T08:25:24;5.18;;;4.03;;
21432;SDS011;18592;49.708;10.900;2023-04-15T08:27:26;4.68;;;3.60;;
21432;SDS011;18592;49.708;10.900;2023-04-15T08:29:27;4.68;;;3.60;;
21432;SDS011;18592;49.708;10.900;2023-04-15T08:31:29;4.38;;;3.67;;
21432;SDS011;18592;49.708;10.900;2023-04-15T08:33:31;3.97;;;3.58;;
21432;SDS011;18592;49.708;10.900;2023-04-15T08:35:32;3.58;;;3.25;;
21432;SDS011;18592;49.708;10.900;2023-04-15T08:37:37;4.22;;;3.75;;
21432;SDS011;18592;49.708;10.900;2023-04-15T08:39:38;4.45;;;3.63;;
21432;SDS011;18592;49.708;10.900;2023-04-15T08:41:47;4.50;;;4.05;;
21432;SDS011;18592;49.708;10.900;2023-04-15T08:43:57;4.88;;;3.88;;
21432;SDS011;18592;49.708;10.900;2023-04-15T08:46:02;4.00;;;3.60;;
21432;SDS011;18592;49.708;10.900;2023-04-15T08:48:04;4.72;;;3.97;;
21432;SDS011;18592;49.708;10.900;2023-04-15T08:50:07;4.20;;;3.78;;
21432;SDS011;18592;49.708;10.900;2023-04-15T08:52:14;6.25;;;4.35;;
21432;SDS011;18592;49.708;10.900;2023-04-15T08:54:16;3.85;;;3.45;;
21432;SDS011;18592;49.708;10.900;2023-04-15T08:56:19;4.25;;;3.80;;
21432;SDS011;18592;49.708;10.900;2023-04-15T08:58:27;5.45;;;4.20;;
21432;SDS011;18592;49.708;10.900;2023-04-15T09:00:29;4.07;;;3.70;;
21432;SDS011;18592;49.708;10.900;2023-04-15T09:02:34;4.65;;;3.67;;
21432;SDS011;18592;49.708;10.900;2023-04-15T09:04:36;4.20;;;3.55;;
21432;SDS011;18592;49.708;10.900;2023-04-15T09:06:39;4.72;;;3.78;;
21432;SDS011;18592;49.708;10.900;2023-04-15T09:08:41;5.55;;;3.80;;
21432;SDS011;18592;49.708;10.900;2023-04-15T09:10:45;4.95;;;4.10;;
21432;SDS011;18592;49.708;10.900;2023-04-15T09:12:53;5.60;;;4.18;;
21432;SDS011;18592;49.708;10.900;2023-04-15T09:14:55;4.40;;;3.72;;
21432;SDS011;18592;49.708;10.900;2023-04-15T09:16:58;5.45;;;3.67;;
21432;SDS011;18592;49.708;10.900;2023-04-15T09:19:11;4.63;;;3.67;;
21432;SDS011;18592;49.708;10.900;2023-04-15T09:21:23;5.63;;;3.83;;
21432;SDS011;18592;49.708;10.900;2023-04-15T09:23:25;5.13;;;3.78;;
21432;SDS011;18592;49.708;10.900;2023-04-15T09:25:27;5.63;;;3.50;;
21432;SDS011;18592;49.708;10.900;2023-04-15T09:27:30;6.28;;;3.60;;
21432;SDS011;18592;49.708;10.900;2023-04-15T09:29:32;4.47;;;3.42;;
21432;SDS011;18592;49.708;10.900;2023-04-15T09:31:34;4.72;;;3.22;;
21432;SDS011;18592;49.708;10.900;2023-04-15T09:33:53;4.68;;;3.15;;
21432;SDS011;18592;49.708;10.900;2023-04-15T09:36:00;3.63;;;2.85;;
21432;SDS011;18592;49.708;10.900;2023-04-15T09:38:05;3.47;;;2.60;;
21432;SDS011;18592;49.708;10.900;2023-04-15T09:40:08;3.08;;;2.78;;
21432;SDS011;18592;49.708;10.900;2023-04-15T09:42:10;3.75;;;3.17;;
21432;SDS011;18592;49.708;10.900;2023-04-15T09:44:26;3.45;;;2.70;;
21432;SDS011;18592;49.708;10.900;2023-04-15T09:46:44;3.35;;;2.53;;
21432;SDS011;18592;49.708;10.900;2023-04-15T09:48:49;3.95;;;2.63;;
21432;SDS011;18592;49.708;10.900;2023-04-15T09:51:08;3.75;;;2.88;;
21432;SDS011;18592;49.708;10.900;2023-04-15T09:53:10;3.00;;;2.60;;
21432;SDS011;18592;49.708;10.900;2023-04-15T09:55:19;3.13;;;2.75;;
21432;SDS011;18592;49.708;10.900;2023-04-15T09:57:21;3.45;;;2.40;;
21432;SDS011;18592;49.708;10.900;2023-04-15T09:59:25;2.92;;;2.10;;
21432;SDS011;18592;49.708;10.900;2023-04-15T10:01:26;3.13;;;2.25;;
21432;SDS011;18592;49.708;10.900;2023-04-15T10:03:29;3.28;;;2.30;;
21432;SDS011;18592;49.708;10.900;2023-04-15T10:05:35;2.63;;;2.10;;
21432;SDS011;18592;49.708;10.900;2023-04-15T10:07:38;2.70;;;2.25;;
21432;SDS011;18592;49.708;10.900;2023-04-15T10:09:41;2.30;;;2.10;;
21432;SDS011;18592;49.708;10.900;2023-04-15T10:11:46;2.42;;;2.08;;
21432;SDS011;18592;49.708;10.900;2023-04-15T10:13:50;2.13;;;1.65;;
21432;SDS011;18592;49.708;10.900;2023-04-15T10:18:07;2.00;;;1.63;;
21432;SDS011;18592;49.708;10.900;2023-04-15T10:20:11;2.40;;;1.60;;
21432;SDS011;18592;49.708;10.900;2023-04-15T10:22:14;2.35;;;1.95;;
21432;SDS011;18592;49.708;10.900;2023-04-15T10:24:17;1.55;;;1.45;;
21432;SDS011;18592;49.708;10.900;2023-04-15T10:26:19;2.22;;;1.73;;
21432;SDS011;18592;49.708;10.900;2023-04-15T10:28:21;2.70;;;2.00;;
21432;SDS011;18592;49.708;10.900;2023-04-15T10:30:23;3.20;;;2.25;;
21432;SDS011;18592;49.708;10.900;2023-04-15T10:32:31;2.88;;;2.10;;
21432;SDS011;18592;49.708;10.900;2023-04-15T10:34:33;3.05;;;2.30;;
21432;SDS011;18592;49.708;10.900;2023-04-15T10:36:36;3.00;;;2.30;;
21432;SDS011;18592;49.708;10.900;2023-04-15T10:38:40;2.83;;;2.17;;
21432;SDS011;18592;49.708;10.900;2023-04-15T10:40:46;2.08;;;1.80;;
21432;SDS011;18592;49.708;10.900;2023-04-15T10:42:50;1.85;;;1.60;;
21432;SDS011;18592;49.708;10.900;2023-04-15T10:44:55;1.40;;;1.30;;
21432;SDS011;18592;49.708;10.900;2023-04-15T10:46:57;2.97;;;1.58;;
21432;SDS011;18592;49.708;10.900;2023-04-15T10:49:05;1.60;;;1.50;;
21432;SDS011;18592;49.708;10.900;2023-04-15T10:57:07;1.90;;;1.40;;
21432;SDS011;18592;49.708;10.900;2023-04-15T10:59:14;1.55;;;1.45;;
21432;SDS011;18592;49.708;10.900;2023-04-15T11:01:18;1.60;;;1.40;;
21432;SDS011;18592;49.708;10.900;2023-04-15T11:03:33;1.88;;;1.30;;
21432;SDS011;18592;49.708;10.900;2023-04-15T11:07:40;1.60;;;1.25;;
21432;SDS011;18592;49.708;10.900;2023-04-15T11:09:48;1.33;;;1.23;;
21432;SDS011;18592;49.708;10.900;2023-04-15T11:12:03;1.50;;;1.38;;
21432;SDS011;18592;49.708;10.900;2023-04-15T11:14:13;1.35;;;1.20;;
21432;SDS011;18592;49.708;10.900;2023-04-15T11:16:16;1.63;;;1.27;;
21432;SDS011;18592;49.708;10.900;2023-04-15T11:18:20;1.55;;;1.45;;
21432;SDS011;18592;49.708;10.900;2023-04-15T11:20:30;1.60;;;1.50;;
21432;SDS011;18592;49.708;10.900;2023-04-15T11:22:32;2.10;;;1.25;;
21432;SDS011;18592;49.708;10.900;2023-04-15T11:24:34;1.75;;;1.60;;
21432;SDS011;18592;49.708;10.900;2023-04-15T11:26:36;1.60;;;1.48;;
21432;SDS011;18592;49.708;10.900;2023-04-15T11:28:39;2.38;;;1.70;;
21432;SDS011;18592;49.708;10.900;2023-04-15T11:30:43;2.53;;;1.50;;
21432;SDS011;18592;49.708;10.900;2023-04-15T11:32:45;3.13;;;1.60;;
21432;SDS011;18592;49.708;10.900;2023-04-15T11:34:46;2.00;;;1.60;;
21432;SDS011;18592;49.708;10.900;2023-04-15T11:36:49;1.98;;;1.70;;
21432;SDS011;18592;49.708;10.900;2023-04-15T11:38:53;2.83;;;1.67;;
21432;SDS011;18592;49.708;10.900;2023-04-15T11:40:55;1.30;;;1.20;;
21432;SDS011;18592;49.708;10.900;2023-04-15T11:45:14;1.38;;;1.00;;
21432;SDS011;18592;49.708;10.900;2023-04-15T11:47:22;1.63;;;1.20;;
21432;SDS011;18592;49.708;10.900;2023-04-15T11:49:31;2.00;;;1.10;;
21432;SDS011;18592;49.708;10.900;2023-04-15T11:51:34;1.90;;;1.33;;
21432;SDS011;18592;49.708;10.900;2023-04-15T11:55:43;1.40;;;1.30;;
21432;SDS011;18592;49.708;10.900;2023-04-15T11:57:50;1.00;;;0.82;;
21432;SDS011;18592;49.708;10.900;2023-04-15T12:00:07;1.00;;;0.90;;
21432;SDS011;18592;49.708;10.900;2023-04-15T12:02:10;1.23;;;0.90;;
21432;SDS011;18592;49.708;10.900;2023-04-15T12:04:14;1.45;;;1.15;;
21432;SDS011;18592;49.708;10.900;2023-04-15T12:06:28;0.93;;;0.90;;
21432;SDS011;18592;49.708;10.900;2023-04-15T12:11:15;1.13;;;1.00;;
21432;SDS011;18592;49.708;10.900;2023-04-15T12:13:20;2.05;;;1.45;;
21432;SDS011;18592;49.708;10.900;2023-04-15T12:15:25;2.60;;;1.02;;
21432;SDS011;18592;49.708;10.900;2023-04-15T12:17:33;1.55;;;1.42;;
21432;SDS011;18592;49.708;10.900;2023-04-15T12:19:55;1.75;;;1.40;;
21432;SDS011;18592;49.708;10.900;2023-04-15T12:22:00;1.33;;;1.23;;
21432;SDS011;18592;49.708;10.900;2023-04-15T12:24:21;1.30;;;1.15;;
21432;SDS011;18592;49.708;10.900;2023-04-15T12:26:26;1.50;;;1.40;;
21432;SDS011;18592;49.708;10.900;2023-04-15T12:28:30;1.45;;;1.30;;
21432;SDS011;18592;49.708;10.900;2023-04-15T12:30:32;1.25;;;1.15;;
21432;SDS011;18592;49.708;10.900;2023-04-15T12:32:34;1.20;;;1.10;;